createdAt,value
2022-11-21T00:02:47.242Z,99.00
2022-11-21T00:06:52.245Z,98.60
2022-11-21T00:10:54.080Z,97.50
2022-11-21T00:14:56.169Z,97.90
2022-11-21T00:18:58.358Z,99.60
2022-11-21T00:23:00.166Z,98.90
2022-11-21T00:27:02.133Z,97.90
2022-11-21T00:31:05.083Z,97.10
2022-11-21T00:35:07.610Z,96.90
2022-11-21T00:39:09.449Z,95.90
2022-11-21T00:43:11.404Z,96.90
2022-11-21T00:47:13.229Z,98.30
2022-11-21T00:51:15.106Z,98.20
2022-11-21T00:55:16.954Z,98.30
2022-11-21T00:59:18.828Z,99.90
2022-11-21T01:03:20.697Z,99.90
2022-11-21T01:07:22.562Z,99.90
2022-11-21T01:11:24.783Z,99.90
2022-11-21T01:15:26.672Z,99.90
2022-11-21T01:19:28.547Z,99.90
2022-11-21T01:23:30.442Z,99.40
2022-11-21T01:27:32.310Z,99.30
2022-11-21T01:31:34.604Z,98.30
2022-11-21T01:35:36.443Z,98.10
2022-11-21T01:39:38.308Z,97.90
2022-11-21T01:43:40.323Z,98.90
2022-11-21T01:47:42.137Z,98.00
2022-11-21T01:52:02.071Z,99.10
2022-11-21T01:56:05.113Z,98.70
2022-11-21T02:00:18.352Z,97.60
2022-11-21T02:04:22.522Z,97.80
2022-11-21T02:08:27.492Z,97.60
2022-11-21T02:12:40.245Z,97.30
2022-11-21T02:16:42.826Z,98.30
2022-11-21T02:20:51.681Z,97.80
2022-11-21T02:25:05.515Z,99.40
2022-11-21T02:29:07.395Z,99.00
2022-11-21T02:33:10.142Z,99.90
2022-11-21T02:37:12.276Z,99.90
2022-11-21T02:41:32.350Z,99.90
2022-11-21T02:45:40.832Z,99.90
2022-11-21T02:49:56.601Z,99.90
2022-11-21T02:53:58.416Z,99.90
2022-11-21T02:58:04.977Z,99.90
2022-11-21T03:02:07.323Z,99.90
2022-11-21T03:06:09.161Z,99.20
2022-11-21T03:10:11.446Z,99.90
2022-11-21T03:14:13.324Z,98.90
2022-11-21T03:18:15.158Z,98.70
2022-11-21T03:22:17.000Z,98.20
2022-11-21T03:26:18.892Z,97.90
2022-11-21T03:30:22.053Z,98.90
2022-11-21T03:34:25.275Z,98.70
2022-11-21T03:38:27.334Z,98.60
2022-11-21T03:42:29.165Z,97.60
2022-11-21T03:46:33.794Z,96.80
2022-11-21T03:50:35.635Z,97.30
2022-11-21T03:54:37.462Z,97.30
2022-11-21T03:58:39.288Z,97.10
2022-11-21T04:02:41.092Z,97.30
2022-11-21T04:06:42.977Z,96.90
2022-11-21T04:10:51.701Z,96.60
2022-11-21T04:14:53.520Z,96.80
2022-11-21T04:18:55.318Z,97.30
2022-11-21T04:22:57.130Z,97.30
2022-11-21T04:26:58.973Z,98.40
2022-11-21T04:31:09.839Z,99.10
2022-11-21T04:35:12.433Z,98.90
2022-11-21T04:39:14.244Z,99.00
2022-11-21T04:43:16.354Z,98.50
2022-11-21T04:47:18.210Z,98.40
2022-11-21T04:51:20.126Z,97.00
2022-11-21T04:55:24.682Z,98.10
2022-11-21T04:59:26.585Z,96.00
2022-11-21T05:03:28.420Z,98.10
2022-11-21T05:07:30.261Z,97.40
2022-11-21T05:11:50.561Z,96.60
2022-11-21T05:15:58.700Z,97.80
2022-11-21T05:20:00.634Z,99.00
2022-11-21T05:24:02.561Z,99.20
2022-11-21T05:28:04.489Z,98.10
2022-11-21T05:32:06.356Z,98.10
2022-11-21T05:36:08.184Z,97.60
2022-11-21T05:40:10.612Z,97.80
2022-11-21T05:44:12.414Z,98.00
2022-11-21T05:48:14.235Z,98.70
2022-11-21T05:52:16.057Z,98.40
2022-11-21T05:56:19.612Z,98.00
2022-11-21T06:00:21.579Z,97.20
2022-11-21T06:04:23.519Z,98.70
2022-11-21T06:08:25.806Z,97.90
2022-11-21T06:12:27.595Z,98.20
2022-11-21T06:16:29.627Z,99.10
2022-11-21T06:20:31.466Z,99.90
2022-11-21T06:24:36.489Z,99.90
2022-11-21T06:28:41.622Z,99.10
2022-11-21T06:32:48.856Z,99.00
2022-11-21T06:36:51.855Z,98.70
2022-11-21T06:40:54.870Z,98.10
2022-11-21T06:44:57.306Z,98.80
2022-11-21T06:48:59.175Z,97.90
2022-11-21T06:53:01.442Z,99.90
2022-11-21T06:57:03.439Z,98.50
2022-11-21T07:01:09.923Z,97.80
2022-11-21T07:05:11.792Z,98.20
2022-11-21T07:13:35.530Z,99.50
2022-11-21T07:17:37.441Z,98.50
2022-11-21T07:21:39.341Z,97.50
2022-11-21T07:25:43.308Z,97.10
2022-11-21T07:29:45.900Z,96.80
2022-11-21T07:33:48.284Z,97.20
2022-11-21T07:37:50.333Z,96.90
2022-11-21T07:41:52.147Z,95.20
2022-11-21T07:45:53.997Z,95.30
2022-11-21T07:49:55.786Z,96.10
2022-11-21T07:53:57.601Z,96.20
2022-11-21T07:58:00.524Z,96.30
2022-11-21T08:02:02.379Z,95.80
2022-11-21T08:06:05.230Z,96.60
2022-11-21T08:10:07.281Z,96.30
2022-11-21T08:14:09.204Z,96.40
2022-11-21T08:18:13.466Z,96.40
2022-11-21T08:22:15.281Z,96.20
2022-11-21T08:26:17.809Z,96.30
2022-11-21T08:30:19.776Z,97.90
2022-11-21T08:34:21.585Z,98.20
2022-11-21T08:38:23.472Z,98.30
2022-11-21T08:42:26.056Z,97.70
2022-11-21T08:46:28.447Z,98.20
2022-11-21T08:50:32.171Z,99.40
2022-11-21T08:54:34.181Z,99.90
2022-11-21T08:58:36.136Z,99.60
2022-11-21T09:02:38.362Z,98.70
2022-11-21T09:06:41.750Z,98.90
2022-11-21T09:10:43.885Z,99.00
2022-11-21T09:15:04.256Z,99.30
2022-11-21T09:19:06.090Z,99.70
2022-11-21T09:23:11.476Z,98.80
2022-11-21T09:27:13.834Z,99.80
2022-11-21T09:31:16.429Z,99.60
2022-11-21T09:35:19.233Z,98.50
2022-11-21T09:39:22.090Z,98.20
2022-11-21T09:43:36.017Z,98.60
2022-11-21T09:47:41.897Z,98.00
2022-11-21T09:51:46.206Z,98.00
2022-11-21T09:55:53.607Z,97.50
2022-11-21T09:59:57.331Z,96.60
2022-11-21T10:04:04.240Z,96.40
2022-11-21T10:08:56.292Z,96.30
2022-11-21T10:13:05.385Z,96.90
2022-11-21T10:18:03.228Z,96.70
2022-11-21T10:22:32.615Z,96.10
2022-11-21T10:26:38.177Z,95.50
2022-11-21T10:30:47.114Z,95.40
2022-11-21T10:40:25.322Z,95.80
2022-11-21T10:44:47.315Z,95.00
2022-11-21T10:49:00.241Z,95.40
2022-11-21T10:53:33.790Z,95.20
2022-11-21T10:57:45.304Z,94.80
2022-11-21T11:02:15.036Z,94.20
2022-11-21T11:06:29.423Z,94.40
2022-11-21T11:10:36.531Z,93.70
2022-11-21T11:14:39.056Z,92.60
2022-11-21T11:19:03.365Z,93.10
2022-11-21T11:23:19.938Z,93.50
2022-11-21T11:27:28.531Z,92.90
2022-11-21T11:31:44.111Z,93.50
2022-11-21T11:35:47.105Z,93.40
2022-11-21T11:40:13.788Z,92.70
2022-11-21T11:44:44.167Z,92.40
2022-11-21T11:49:11.495Z,94.30
2022-11-21T11:53:30.503Z,95.90
2022-11-21T11:57:35.259Z,96.80
2022-11-21T12:01:53.560Z,96.80
2022-11-21T12:05:59.139Z,95.70
2022-11-21T12:10:15.243Z,94.60
2022-11-21T12:15:21.198Z,95.90
2022-11-21T12:19:23.155Z,95.80
2022-11-21T12:23:49.678Z,96.00
2022-11-21T12:27:54.989Z,94.50
2022-11-21T12:32:34.225Z,93.60
2022-11-21T12:36:55.372Z,92.60
2022-11-21T12:41:37.585Z,92.30
2022-11-21T12:45:56.377Z,94.60
2022-11-21T12:50:44.083Z,95.10
2022-11-21T12:55:11.553Z,96.50
2022-11-21T12:59:14.863Z,97.50
2022-11-21T13:03:35.434Z,96.50
2022-11-21T13:07:38.638Z,96.90
2022-11-21T13:12:03.753Z,97.20
2022-11-21T13:16:10.775Z,97.80
2022-11-21T13:20:34.628Z,96.40
2022-11-21T13:24:45.278Z,96.50
2022-11-21T13:28:47.473Z,96.80
2022-11-21T13:32:55.804Z,97.00
2022-11-21T13:36:57.772Z,97.30
2022-11-21T13:41:18.209Z,97.60
2022-11-21T13:45:38.632Z,98.90
2022-11-21T13:50:05.585Z,99.80
2022-11-21T13:54:40.107Z,99.90
2022-11-21T13:59:12.259Z,99.70
2022-11-21T14:03:47.902Z,99.40
2022-11-21T14:07:50.737Z,97.10
2022-11-21T14:12:05.682Z,97.50
2022-11-21T14:16:34.438Z,96.70
2022-11-21T14:20:57.415Z,97.90
2022-11-21T14:25:00.088Z,98.90
2022-11-21T14:29:27.681Z,99.50
2022-11-21T14:33:35.711Z,99.90
2022-11-21T14:37:42.239Z,99.90
2022-11-21T14:41:51.480Z,99.90
2022-11-21T14:45:53.306Z,99.90
2022-11-21T14:50:00.864Z,99.90
2022-11-21T14:54:05.766Z,99.90
2022-11-21T14:58:08.232Z,99.90
2022-11-21T15:02:17.105Z,99.90
2022-11-21T15:06:18.922Z,99.90
2022-11-21T15:10:29.004Z,99.90
2022-11-21T15:14:44.484Z,99.90
2022-11-21T15:18:47.217Z,98.30
2022-11-21T15:22:50.008Z,99.90
2022-11-21T15:26:51.835Z,99.90
2022-11-21T15:31:19.157Z,99.90
2022-11-21T15:35:31.922Z,99.90
2022-11-21T15:39:34.677Z,99.90
2022-11-21T15:44:00.585Z,99.90
2022-11-21T15:48:02.407Z,99.90
2022-11-21T15:52:11.911Z,99.90
2022-11-21T15:56:21.361Z,99.90
2022-11-21T16:00:24.682Z,99.90
2022-11-21T16:04:26.617Z,99.90
2022-11-21T16:08:28.473Z,99.90
2022-11-21T16:12:30.329Z,99.90
2022-11-21T16:16:38.466Z,99.90
2022-11-21T16:20:43.205Z,99.90
2022-11-21T16:24:45.153Z,99.90
2022-11-21T16:28:47.066Z,99.90
2022-11-21T16:32:49.009Z,99.90
2022-11-21T16:36:50.828Z,99.90
2022-11-21T16:41:00.490Z,99.90
2022-11-21T16:45:02.352Z,99.90
2022-11-21T16:49:04.197Z,99.90
2022-11-21T16:53:06.026Z,99.90
2022-11-21T16:57:07.877Z,99.90
2022-11-21T17:01:15.183Z,99.90
2022-11-21T17:05:18.347Z,99.90
2022-11-21T17:09:20.227Z,99.90
2022-11-21T17:13:22.033Z,99.90
2022-11-21T17:17:23.939Z,99.90
2022-11-21T17:21:26.983Z,99.90
2022-11-21T17:25:29.542Z,99.90
2022-11-21T17:29:31.598Z,99.90
2022-11-21T17:33:33.634Z,99.90
2022-11-21T17:37:35.500Z,99.90
2022-11-21T17:41:39.564Z,99.90
2022-11-21T17:45:41.420Z,99.90
2022-11-21T17:49:43.305Z,99.90
2022-11-21T17:53:47.321Z,99.90
2022-11-21T17:57:49.169Z,99.90
2022-11-21T18:01:51.097Z,99.90
2022-11-21T18:06:06.101Z,99.90
2022-11-21T18:10:35.260Z,99.90
2022-11-21T18:14:30.773Z,99.90
2022-11-21T18:18:34.129Z,99.90
2022-11-21T18:22:35.967Z,99.90
2022-11-21T18:26:39.122Z,99.90
2022-11-21T18:30:40.999Z,99.90
2022-11-21T18:34:42.867Z,99.90
2022-11-21T18:38:53.732Z,99.90
2022-11-21T18:42:59.832Z,99.90
2022-11-21T18:47:01.673Z,99.90
2022-11-21T18:51:17.896Z,99.90
2022-11-21T18:55:22.533Z,99.90
2022-11-21T18:59:24.352Z,99.90
2022-11-21T19:03:26.167Z,99.90
2022-11-21T19:07:28.101Z,99.90
2022-11-21T19:11:30.502Z,99.90
2022-11-21T19:15:32.394Z,99.90
2022-11-21T19:19:35.570Z,99.90
2022-11-21T19:23:39.502Z,99.90
2022-11-21T19:27:41.335Z,99.90
2022-11-21T19:31:45.892Z,99.90
2022-11-21T19:35:47.971Z,99.90
2022-11-21T19:39:50.399Z,99.90
2022-11-21T19:43:53.439Z,99.90
2022-11-21T19:47:58.158Z,99.90
2022-11-21T19:51:59.962Z,99.90
2022-11-21T19:56:32.717Z,99.90
2022-11-21T20:00:34.567Z,99.90
2022-11-21T20:04:36.429Z,99.90
2022-11-21T20:08:38.279Z,99.90
2022-11-21T20:12:40.117Z,99.90
2022-11-21T20:16:44.505Z,99.90
2022-11-21T20:20:46.294Z,99.90
2022-11-21T20:24:51.752Z,99.90
2022-11-21T20:28:54.725Z,99.90
2022-11-21T20:32:56.510Z,99.70
2022-11-21T20:36:59.734Z,99.40
2022-11-21T20:41:01.964Z,99.00
2022-11-21T20:49:25.788Z,99.90
2022-11-21T20:57:50.570Z,99.90
2022-11-21T21:01:52.516Z,99.90
2022-11-21T21:06:02.722Z,99.90
2022-11-21T21:10:08.348Z,99.90
2022-11-21T21:14:10.142Z,99.90
2022-11-21T21:18:12.559Z,99.90
2022-11-21T21:22:14.688Z,99.90
2022-11-21T21:26:19.229Z,99.90
2022-11-21T21:30:21.221Z,99.90
2022-11-21T21:34:23.387Z,99.90
2022-11-21T21:38:25.234Z,99.90
2022-11-21T21:42:27.150Z,99.90
2022-11-21T21:46:28.947Z,99.90
2022-11-21T21:50:30.766Z,99.90
2022-11-21T21:54:32.748Z,99.90
2022-11-21T21:58:37.491Z,99.90
2022-11-21T22:02:39.780Z,99.90
2022-11-21T22:06:41.910Z,99.90
2022-11-21T22:10:43.740Z,99.90
2022-11-21T22:14:45.590Z,99.90
2022-11-21T22:18:47.615Z,99.90
2022-11-21T22:22:49.437Z,99.90
2022-11-21T22:26:51.288Z,99.90
2022-11-21T22:30:57.376Z,99.90
2022-11-21T22:34:59.227Z,99.90
2022-11-21T22:39:01.011Z,99.90
2022-11-21T22:43:03.292Z,99.90
2022-11-21T22:47:05.170Z,99.90
2022-11-21T22:51:07.907Z,99.90
2022-11-21T22:55:09.928Z,99.90
2022-11-21T22:59:15.077Z,99.90
2022-11-21T23:03:16.933Z,99.90
2022-11-21T23:07:18.826Z,99.90
2022-11-21T23:11:23.360Z,99.90
2022-11-21T23:15:25.504Z,99.90
2022-11-21T23:19:28.146Z,99.90
2022-11-21T23:23:30.631Z,99.90
2022-11-21T23:27:32.479Z,99.90
2022-11-21T23:31:34.408Z,99.90
2022-11-21T23:35:36.623Z,99.90
2022-11-21T23:39:38.459Z,99.90
2022-11-21T23:43:40.285Z,99.90
2022-11-21T23:47:42.164Z,99.90
2022-11-21T23:51:43.990Z,99.90
2022-11-21T23:55:45.946Z,99.90
2022-11-21T23:59:47.793Z,99.90
